createdAt,value
2023-02-16T00:01:25.699Z,16.67
2023-02-16T00:03:55.091Z,17.10
2023-02-16T00:06:23.211Z,16.88
2023-02-16T00:08:53.220Z,19.85
2023-02-16T00:11:41.855Z,19.25
2023-02-16T00:14:12.842Z,19.23
2023-02-16T00:16:40.583Z,19.45
2023-02-16T00:19:20.168Z,21.63
2023-02-16T00:21:48.096Z,20.52
2023-02-16T00:24:15.762Z,21.17
2023-02-16T00:26:44.180Z,20.98
2023-02-16T00:29:17.326Z,21.23
2023-02-16T00:31:45.040Z,19.88
2023-02-16T00:34:26.176Z,20.92
2023-02-16T00:36:54.743Z,19.98
2023-02-16T00:39:24.939Z,21.65
2023-02-16T00:41:55.286Z,21.42
2023-02-16T00:44:32.489Z,20.10
2023-02-16T00:47:04.050Z,22.10
2023-02-16T00:49:31.607Z,19.83
2023-02-16T00:51:59.210Z,22.27
2023-02-16T00:54:26.772Z,20.40
2023-02-16T00:56:54.371Z,22.65
2023-02-16T00:59:23.792Z,22.40
2023-02-16T01:01:52.784Z,22.13
2023-02-16T01:04:24.173Z,22.23
2023-02-16T01:07:09.448Z,23.08
2023-02-16T01:09:54.915Z,21.83
2023-02-16T01:12:23.086Z,22.35
2023-02-16T01:14:53.174Z,22.20
2023-02-16T01:17:25.589Z,22.83
2023-02-16T01:19:56.054Z,21.95
2023-02-16T01:22:23.849Z,22.88
2023-02-16T01:24:51.445Z,21.80
2023-02-16T01:27:19.095Z,22.38
2023-02-16T01:29:46.650Z,23.17
2023-02-16T01:32:16.583Z,23.90
2023-02-16T01:34:45.647Z,23.85
2023-02-16T01:37:16.290Z,24.05
2023-02-16T01:39:44.888Z,23.40
2023-02-16T01:42:30.384Z,24.52
2023-02-16T01:45:02.858Z,25.67
2023-02-16T01:47:36.963Z,21.73
2023-02-16T01:50:18.588Z,25.05
2023-02-16T01:52:50.839Z,22.73
2023-02-16T01:55:22.998Z,22.80
2023-02-16T01:57:53.989Z,23.85
2023-02-16T02:00:28.339Z,23.20
2023-02-16T02:03:19.406Z,22.05
2023-02-16T02:05:48.499Z,23.05
2023-02-16T02:08:22.704Z,25.00
2023-02-16T02:11:06.038Z,23.92
2023-02-16T02:13:41.452Z,24.00
2023-02-16T02:16:10.919Z,23.75
2023-02-16T02:18:39.341Z,23.15
2023-02-16T02:21:47.068Z,24.10
2023-02-16T02:24:35.670Z,23.20
2023-02-16T02:27:21.712Z,22.52
2023-02-16T02:30:04.812Z,23.15
2023-02-16T02:32:43.288Z,22.88
2023-02-16T02:35:20.535Z,24.45
2023-02-16T02:37:55.602Z,23.42
2023-02-16T02:40:32.825Z,24.55
2023-02-16T02:43:11.110Z,24.42
2023-02-16T02:45:44.163Z,23.73
2023-02-16T02:48:12.046Z,24.15
2023-02-16T02:51:04.153Z,24.83
2023-02-16T02:53:33.775Z,23.67
2023-02-16T02:56:21.142Z,23.88
2023-02-16T02:59:17.331Z,23.60
2023-02-16T03:01:50.926Z,23.42
2023-02-16T03:04:22.836Z,24.17
2023-02-16T03:06:54.611Z,22.92
2023-02-16T03:09:22.372Z,24.40
2023-02-16T03:12:09.227Z,23.55
2023-02-16T03:14:42.843Z,23.00
2023-02-16T03:17:31.206Z,23.38
2023-02-16T03:20:17.883Z,24.60
2023-02-16T03:23:03.798Z,23.27
2023-02-16T03:25:52.778Z,23.33
2023-02-16T03:28:40.715Z,22.58
2023-02-16T03:31:12.786Z,22.00
2023-02-16T03:33:41.231Z,22.90
2023-02-16T03:36:09.404Z,21.95
2023-02-16T03:38:37.715Z,24.15
2023-02-16T03:41:06.074Z,23.10
2023-02-16T03:43:33.974Z,22.73
2023-02-16T03:46:01.701Z,22.35
2023-02-16T03:48:30.592Z,23.63
2023-02-16T03:50:58.172Z,24.75
2023-02-16T03:53:26.127Z,23.60
2023-02-16T03:55:53.679Z,21.60
2023-02-16T03:58:23.487Z,22.88
2023-02-16T04:00:51.512Z,22.88
2023-02-16T04:03:19.285Z,23.15
2023-02-16T04:05:48.159Z,24.90
2023-02-16T04:08:15.708Z,23.15
2023-02-16T04:10:43.378Z,23.80
2023-02-16T04:13:10.014Z,24.58
2023-02-16T04:15:37.737Z,23.77
2023-02-16T04:18:05.373Z,23.00
2023-02-16T04:20:34.580Z,23.55
2023-02-16T04:23:03.593Z,23.08
2023-02-16T04:25:31.232Z,23.75
2023-02-16T04:27:59.247Z,24.88
2023-02-16T04:30:28.749Z,23.73
2023-02-16T04:32:57.156Z,23.38
2023-02-16T04:35:24.818Z,22.45
2023-02-16T04:37:52.373Z,23.23
2023-02-16T04:40:21.326Z,23.23
2023-02-16T04:42:48.997Z,22.83
2023-02-16T04:45:16.701Z,22.92
2023-02-16T04:47:44.283Z,21.92
2023-02-16T04:50:13.348Z,22.52
2023-02-16T04:52:41.411Z,22.15
2023-02-16T04:55:10.859Z,22.73
2023-02-16T04:57:40.560Z,22.05
2023-02-16T05:00:11.753Z,22.92
2023-02-16T05:02:39.630Z,24.40
2023-02-16T05:05:08.295Z,23.00
2023-02-16T05:07:36.116Z,21.83
2023-02-16T05:10:03.759Z,22.27
2023-02-16T05:12:49.131Z,23.80
2023-02-16T05:15:18.421Z,21.40
2023-02-16T05:17:45.980Z,22.27
2023-02-16T05:20:14.373Z,23.27
2023-02-16T05:22:43.471Z,22.58
2023-02-16T05:25:11.130Z,22.10
2023-02-16T05:27:38.838Z,21.83
2023-02-16T05:30:07.576Z,22.42
2023-02-16T05:32:36.518Z,22.95
2023-02-16T05:35:04.126Z,23.00
2023-02-16T05:37:31.699Z,23.48
2023-02-16T05:39:59.272Z,21.25
2023-02-16T05:42:27.022Z,22.27
2023-02-16T05:44:54.665Z,21.40
2023-02-16T05:47:22.282Z,22.50
2023-02-16T05:49:51.158Z,22.48
2023-02-16T05:52:18.732Z,22.55
2023-02-16T05:54:46.315Z,21.45
2023-02-16T05:57:14.075Z,20.60
2023-02-16T05:59:41.595Z,22.45
2023-02-16T06:02:09.825Z,21.73
2023-02-16T06:04:37.430Z,22.92
2023-02-16T06:07:06.360Z,23.02
2023-02-16T06:09:34.464Z,22.20
2023-02-16T06:12:02.075Z,22.70
2023-02-16T06:14:29.661Z,23.75
2023-02-16T06:16:58.697Z,25.25
2023-02-16T06:19:26.352Z,24.38
2023-02-16T06:21:53.978Z,24.40
2023-02-16T06:24:23.010Z,24.02
2023-02-16T06:26:50.793Z,24.42
2023-02-16T06:29:18.370Z,24.73
2023-02-16T06:31:46.054Z,24.80
2023-02-16T06:34:13.718Z,24.27
2023-02-16T06:36:42.605Z,24.10
2023-02-16T06:39:10.532Z,24.60
2023-02-16T06:41:40.359Z,25.83
2023-02-16T06:44:12.353Z,24.50
2023-02-16T06:46:40.245Z,25.50
2023-02-16T06:49:08.308Z,23.77
2023-02-16T06:51:35.963Z,23.52
2023-02-16T06:54:04.046Z,23.70
2023-02-16T06:56:31.701Z,24.33
2023-02-16T06:59:00.633Z,25.13
2023-02-16T07:01:28.360Z,24.35
2023-02-16T07:03:57.287Z,24.33
2023-02-16T07:06:26.172Z,25.02
2023-02-16T07:08:54.308Z,23.92
2023-02-16T07:11:22.461Z,25.30
2023-02-16T07:13:50.321Z,25.30
2023-02-16T07:16:19.302Z,24.48
2023-02-16T07:18:47.404Z,24.42
2023-02-16T07:21:15.707Z,25.20
2023-02-16T07:23:43.429Z,25.80
2023-02-16T07:26:11.109Z,25.92
2023-02-16T07:28:38.706Z,26.88
2023-02-16T07:31:11.470Z,27.73
2023-02-16T07:33:41.042Z,27.52
2023-02-16T07:36:09.974Z,27.60
2023-02-16T07:38:38.266Z,26.23
2023-02-16T07:41:09.243Z,27.13
2023-02-16T07:43:37.752Z,25.00
2023-02-16T07:46:05.788Z,25.17
2023-02-16T07:48:33.377Z,24.40
2023-02-16T07:51:04.030Z,25.70
2023-02-16T07:53:31.914Z,25.20
2023-02-16T07:55:59.472Z,25.65
2023-02-16T07:58:29.864Z,25.50
2023-02-16T08:01:06.523Z,26.63
2023-02-16T08:03:34.330Z,24.23
2023-02-16T08:06:03.886Z,25.65
2023-02-16T08:08:31.789Z,25.77
2023-02-16T08:10:59.605Z,24.80
2023-02-16T08:13:27.210Z,25.23
2023-02-16T08:15:54.740Z,26.30
2023-02-16T08:18:22.324Z,24.92
2023-02-16T08:21:03.360Z,26.15
2023-02-16T08:23:33.313Z,25.08
2023-02-16T08:26:09.793Z,25.73
2023-02-16T08:28:38.559Z,24.70
2023-02-16T08:31:07.047Z,25.10
2023-02-16T08:33:36.642Z,25.38
2023-02-16T08:36:05.020Z,24.73
2023-02-16T08:38:34.371Z,25.08
2023-02-16T08:41:02.503Z,23.98
2023-02-16T08:43:30.065Z,26.35
2023-02-16T08:45:57.897Z,24.92
2023-02-16T08:48:28.614Z,24.92
2023-02-16T08:50:56.259Z,25.80
2023-02-16T08:53:24.517Z,26.05
2023-02-16T08:55:55.687Z,26.33
2023-02-16T08:58:23.623Z,24.75
2023-02-16T09:00:51.708Z,27.27
2023-02-16T09:03:20.088Z,26.27
2023-02-16T09:05:48.531Z,25.00
2023-02-16T09:08:16.608Z,25.05
2023-02-16T09:10:44.789Z,25.52
2023-02-16T09:13:16.220Z,25.17
2023-02-16T09:15:44.912Z,26.73
2023-02-16T09:18:13.984Z,24.50
2023-02-16T09:20:45.643Z,26.55
2023-02-16T09:23:14.446Z,24.73
2023-02-16T09:25:42.412Z,25.02
2023-02-16T09:28:13.746Z,26.52
2023-02-16T09:30:41.514Z,25.10
2023-02-16T09:33:09.917Z,25.30
2023-02-16T09:35:39.793Z,25.20
2023-02-16T09:38:07.910Z,27.05
2023-02-16T09:40:37.511Z,26.45
2023-02-16T09:43:14.255Z,25.50
2023-02-16T09:45:45.983Z,24.48
2023-02-16T09:48:23.329Z,24.35
2023-02-16T09:50:55.264Z,25.38
2023-02-16T09:53:29.085Z,25.60
2023-02-16T09:56:13.937Z,26.55
2023-02-16T09:58:46.054Z,24.73
2023-02-16T10:01:21.354Z,25.23
2023-02-16T10:03:56.611Z,24.80
2023-02-16T10:06:32.005Z,26.02
2023-02-16T10:09:04.200Z,25.33
2023-02-16T10:11:41.574Z,24.80
2023-02-16T10:14:17.113Z,24.55
2023-02-16T10:16:53.084Z,26.45
2023-02-16T10:19:24.207Z,26.63
2023-02-16T10:21:57.476Z,25.40
2023-02-16T10:24:27.041Z,26.85
2023-02-16T10:27:03.193Z,26.58
2023-02-16T10:29:30.870Z,26.90
2023-02-16T10:32:11.655Z,26.40
2023-02-16T10:34:49.711Z,26.85
2023-02-16T10:37:27.166Z,26.45
2023-02-16T10:40:05.571Z,28.42
2023-02-16T10:42:41.777Z,27.20
2023-02-16T10:45:21.794Z,27.42
2023-02-16T10:47:51.342Z,25.45
2023-02-16T10:50:24.311Z,26.52
2023-02-16T10:52:55.883Z,26.92
2023-02-16T10:55:23.469Z,26.77
2023-02-16T10:57:55.155Z,26.27
2023-02-16T11:00:29.005Z,26.25
2023-02-16T11:02:59.387Z,27.38
2023-02-16T11:05:37.997Z,26.98
2023-02-16T11:08:09.735Z,25.75
2023-02-16T11:10:42.003Z,26.30
2023-02-16T11:13:21.874Z,27.25
2023-02-16T11:15:54.378Z,26.85
2023-02-16T11:18:31.518Z,25.65
2023-02-16T11:20:59.502Z,26.13
2023-02-16T11:23:28.922Z,26.38
2023-02-16T11:25:59.210Z,26.05
2023-02-16T11:28:32.083Z,27.50
2023-02-16T11:31:04.648Z,26.58
2023-02-16T11:33:34.821Z,25.80
2023-02-16T11:36:05.263Z,28.40
2023-02-16T11:38:35.004Z,26.40
2023-02-16T11:41:06.321Z,28.30
2023-02-16T11:43:38.149Z,28.08
2023-02-16T11:46:11.662Z,28.25
2023-02-16T11:48:40.611Z,26.35
2023-02-16T11:51:09.871Z,28.38
2023-02-16T11:53:42.076Z,27.08
2023-02-16T11:56:29.197Z,28.30
2023-02-16T11:59:08.163Z,28.45
2023-02-16T12:01:51.698Z,27.55
2023-02-16T12:04:38.210Z,26.50
2023-02-16T12:07:15.553Z,27.35
2023-02-16T12:09:50.678Z,27.25
2023-02-16T12:12:21.840Z,28.58
2023-02-16T12:14:59.865Z,27.98
2023-02-16T12:17:44.544Z,27.67
2023-02-16T12:20:30.857Z,27.80
2023-02-16T12:23:12.104Z,27.60
2023-02-16T12:25:43.472Z,26.13
2023-02-16T12:28:26.431Z,29.95
2023-02-16T12:31:04.077Z,29.25
2023-02-16T12:33:43.533Z,30.02
2023-02-16T12:36:27.529Z,30.95
2023-02-16T12:39:03.362Z,30.25
2023-02-16T12:41:42.816Z,29.25
2023-02-16T12:44:16.279Z,29.42
2023-02-16T12:46:46.748Z,28.70
2023-02-16T12:49:21.002Z,30.63
2023-02-16T12:51:54.200Z,28.83
2023-02-16T12:54:25.799Z,29.73
2023-02-16T12:56:58.809Z,32.53
2023-02-16T12:59:35.167Z,31.05
2023-02-16T13:02:10.697Z,31.23
2023-02-16T13:04:43.353Z,29.38
2023-02-16T13:07:18.976Z,31.65
2023-02-16T13:09:54.511Z,31.33
2023-02-16T13:12:31.256Z,31.10
2023-02-16T13:15:06.422Z,30.00
2023-02-16T13:17:36.815Z,30.00
2023-02-16T13:20:05.103Z,30.88
2023-02-16T13:22:53.820Z,30.58
2023-02-16T13:25:41.818Z,29.73
2023-02-16T13:28:40.596Z,31.38
2023-02-16T13:31:24.017Z,30.83
2023-02-16T13:34:05.715Z,31.23
2023-02-16T13:37:04.714Z,29.60
2023-02-16T13:39:54.561Z,29.88
2023-02-16T13:42:45.669Z,29.90
2023-02-16T13:45:16.610Z,28.67
2023-02-16T13:47:44.567Z,29.58
2023-02-16T13:50:28.035Z,30.35
2023-02-16T13:52:57.458Z,31.52
2023-02-16T13:55:30.901Z,29.67
2023-02-16T13:58:04.393Z,31.80
2023-02-16T14:00:35.462Z,32.00
2023-02-16T14:03:08.446Z,32.60
2023-02-16T14:05:40.066Z,32.90
2023-02-16T14:08:23.449Z,31.85
2023-02-16T14:11:03.979Z,32.42
2023-02-16T14:13:33.712Z,32.58
2023-02-16T14:16:07.998Z,32.40
2023-02-16T14:18:44.455Z,31.60
2023-02-16T14:21:21.699Z,32.72
2023-02-16T14:23:56.625Z,32.45
2023-02-16T14:26:26.124Z,30.70
2023-02-16T14:29:15.867Z,31.67
2023-02-16T14:31:50.887Z,31.35
2023-02-16T14:34:27.680Z,31.20
2023-02-16T14:37:31.640Z,29.65
2023-02-16T14:40:13.233Z,29.60
2023-02-16T14:42:50.037Z,30.73
2023-02-16T14:45:59.783Z,31.13
2023-02-16T14:48:47.639Z,31.38
2023-02-16T14:51:37.768Z,30.05
2023-02-16T14:54:54.611Z,28.83
2023-02-16T14:57:27.716Z,29.70
2023-02-16T15:00:00.845Z,30.05
2023-02-16T15:02:31.802Z,28.80
2023-02-16T15:04:59.444Z,28.73
2023-02-16T15:07:29.035Z,30.27
2023-02-16T15:09:59.072Z,29.70
2023-02-16T15:12:40.479Z,28.92
2023-02-16T15:15:19.522Z,29.45
2023-02-16T15:17:49.008Z,31.50
2023-02-16T15:20:22.487Z,29.83
2023-02-16T15:22:51.412Z,29.33
2023-02-16T15:25:26.494Z,32.58
2023-02-16T15:28:04.303Z,32.00
2023-02-16T15:30:35.176Z,31.35
2023-02-16T15:33:04.953Z,30.67
2023-02-16T15:35:37.603Z,33.03
2023-02-16T15:38:09.229Z,30.77
2023-02-16T15:40:38.008Z,32.65
2023-02-16T15:43:10.950Z,31.08
2023-02-16T15:45:39.847Z,31.85
2023-02-16T15:48:29.317Z,31.48
2023-02-16T15:51:02.530Z,33.60
2023-02-16T15:53:36.060Z,31.67
2023-02-16T15:56:06.950Z,31.60
2023-02-16T15:58:34.743Z,31.17
2023-02-16T16:01:03.847Z,33.35
2023-02-16T16:03:31.689Z,34.08
2023-02-16T16:06:04.829Z,33.63
2023-02-16T16:08:33.220Z,34.38
2023-02-16T16:11:01.161Z,35.03
2023-02-16T16:13:30.826Z,38.83
2023-02-16T16:16:01.883Z,39.05
2023-02-16T16:18:43.546Z,38.70
2023-02-16T16:21:26.837Z,34.45
2023-02-16T16:24:05.324Z,39.60
2023-02-16T16:26:35.785Z,36.22
2023-02-16T16:29:04.238Z,38.97
2023-02-16T16:31:42.410Z,39.10
2023-02-16T16:34:31.863Z,38.03
2023-02-16T16:37:02.471Z,35.00
2023-02-16T16:39:31.450Z,35.50
2023-02-16T16:42:23.575Z,33.75
2023-02-16T16:44:57.908Z,32.90
2023-02-16T16:47:31.467Z,34.90
2023-02-16T16:50:02.586Z,34.03
2023-02-16T16:52:36.486Z,33.33
2023-02-16T16:55:26.756Z,36.67
2023-02-16T16:57:55.703Z,33.33
2023-02-16T17:00:26.173Z,32.80
2023-02-16T17:02:54.143Z,32.00
2023-02-16T17:05:23.036Z,31.02
2023-02-16T17:07:51.745Z,31.45
2023-02-16T17:10:21.198Z,31.48
2023-02-16T17:12:51.365Z,31.50
2023-02-16T17:15:34.551Z,31.55
2023-02-16T17:18:02.544Z,31.00
2023-02-16T17:20:31.560Z,28.33
2023-02-16T17:23:04.387Z,29.88
2023-02-16T17:25:34.365Z,31.02
2023-02-16T17:28:02.498Z,29.20
2023-02-16T17:30:30.394Z,29.20
2023-02-16T17:32:58.076Z,27.77
2023-02-16T17:35:25.959Z,29.30
2023-02-16T17:37:54.852Z,29.17
2023-02-16T17:40:24.734Z,28.17
2023-02-16T17:42:52.680Z,29.30
2023-02-16T17:45:22.828Z,27.38
2023-02-16T17:47:52.777Z,26.35
2023-02-16T17:50:21.352Z,26.25
2023-02-16T17:52:49.014Z,27.02
2023-02-16T17:55:18.045Z,26.58
2023-02-16T17:57:45.605Z,28.23
2023-02-16T18:00:18.588Z,28.30
2023-02-16T18:02:46.212Z,27.98
2023-02-16T18:05:14.661Z,27.85
2023-02-16T18:07:42.212Z,28.02
2023-02-16T18:10:20.700Z,25.85
2023-02-16T18:12:48.293Z,27.65
2023-02-16T18:15:16.072Z,27.13
2023-02-16T18:17:43.600Z,27.83
2023-02-16T18:20:15.787Z,26.23
2023-02-16T18:22:43.322Z,28.05
2023-02-16T18:25:10.892Z,28.55
2023-02-16T18:27:39.938Z,27.35
2023-02-16T18:30:09.876Z,28.65
2023-02-16T18:32:38.001Z,30.77
2023-02-16T18:35:07.055Z,29.40
2023-02-16T18:37:34.787Z,31.38
2023-02-16T18:40:02.564Z,29.60
2023-02-16T18:42:30.164Z,28.58
2023-02-16T18:44:59.037Z,28.20
2023-02-16T18:47:26.729Z,29.48
2023-02-16T18:49:54.367Z,28.13
2023-02-16T18:52:22.063Z,28.80
2023-02-16T18:54:49.656Z,27.58
2023-02-16T18:57:17.262Z,28.52
2023-02-16T18:59:45.012Z,29.40
2023-02-16T19:02:14.037Z,29.20
2023-02-16T19:04:41.795Z,26.17
2023-02-16T19:07:09.495Z,27.77
2023-02-16T19:09:37.130Z,27.75
2023-02-16T19:12:05.093Z,27.15
2023-02-16T19:14:32.730Z,26.88
2023-02-16T19:17:00.304Z,27.00
2023-02-16T19:19:30.822Z,25.70
2023-02-16T19:21:58.751Z,27.33
2023-02-16T19:24:26.398Z,29.45
2023-02-16T19:26:53.929Z,28.38
2023-02-16T19:29:21.786Z,29.00
2023-02-16T19:31:49.456Z,29.70
2023-02-16T19:34:17.145Z,30.13
2023-02-16T19:36:46.205Z,34.05
2023-02-16T19:39:13.849Z,31.98
2023-02-16T19:41:43.879Z,32.25
2023-02-16T19:44:13.889Z,33.20
2023-02-16T19:46:42.483Z,38.03
2023-02-16T19:49:12.746Z,34.00
2023-02-16T19:51:40.365Z,35.85
2023-02-16T19:54:09.682Z,34.63
2023-02-16T19:56:40.460Z,35.67
2023-02-16T19:59:08.603Z,35.15
2023-02-16T20:01:36.207Z,35.38
2023-02-16T20:04:03.997Z,36.88
2023-02-16T20:06:34.606Z,34.83
2023-02-16T20:09:03.193Z,34.20
2023-02-16T20:11:32.901Z,35.90
2023-02-16T20:14:01.107Z,35.58
2023-02-16T20:16:29.100Z,35.92
2023-02-16T20:18:57.965Z,34.15
2023-02-16T20:21:27.645Z,33.15
2023-02-16T20:23:57.546Z,34.03
2023-02-16T20:26:27.615Z,31.92
2023-02-16T20:28:57.259Z,34.50
2023-02-16T20:31:27.211Z,33.92
2023-02-16T20:33:55.654Z,36.42
2023-02-16T20:36:23.691Z,37.38
2023-02-16T20:38:51.626Z,36.90
2023-02-16T20:41:20.262Z,36.20
2023-02-16T20:43:48.220Z,35.38
2023-02-16T20:46:17.922Z,38.67
2023-02-16T20:48:46.214Z,37.75
2023-02-16T20:51:15.366Z,37.50
2023-02-16T20:53:42.931Z,37.97
2023-02-16T20:56:14.636Z,39.58
2023-02-16T20:58:43.130Z,36.85
2023-02-16T21:01:15.708Z,36.20
2023-02-16T21:03:44.645Z,36.08
2023-02-16T21:06:12.213Z,35.65
2023-02-16T21:08:39.977Z,36.88
2023-02-16T21:11:07.989Z,36.17
2023-02-16T21:13:35.805Z,34.75
2023-02-16T21:16:03.750Z,34.25
2023-02-16T21:18:31.639Z,33.05
2023-02-16T21:21:01.844Z,34.47
2023-02-16T21:23:29.579Z,33.47
2023-02-16T21:25:59.539Z,32.90
2023-02-16T21:28:27.967Z,34.25
2023-02-16T21:30:56.008Z,33.92
2023-02-16T21:33:23.574Z,33.75
2023-02-16T21:35:51.121Z,33.83
2023-02-16T21:38:20.071Z,31.75
2023-02-16T21:41:05.503Z,33.45
2023-02-16T21:43:33.057Z,32.00
2023-02-16T21:46:00.997Z,33.72
2023-02-16T21:48:45.986Z,32.20
2023-02-16T21:51:14.390Z,31.85
2023-02-16T21:53:43.426Z,31.90
2023-02-16T21:56:22.573Z,31.80
2023-02-16T21:58:50.287Z,31.30
2023-02-16T22:01:22.199Z,31.85
2023-02-16T22:03:50.217Z,32.45
2023-02-16T22:06:17.755Z,32.90
2023-02-16T22:08:46.665Z,32.83
2023-02-16T22:11:14.476Z,33.03
2023-02-16T22:13:42.119Z,32.45
2023-02-16T22:16:11.422Z,32.28
2023-02-16T22:18:39.800Z,32.50
2023-02-16T22:21:08.077Z,31.70
2023-02-16T22:23:36.072Z,32.20
2023-02-16T22:26:06.448Z,32.13
2023-02-16T22:28:34.646Z,31.70
2023-02-16T22:31:07.236Z,31.83
2023-02-16T22:33:35.079Z,32.58
2023-02-16T22:36:09.332Z,30.60
2023-02-16T22:38:36.980Z,31.83
2023-02-16T22:41:09.788Z,32.35
2023-02-16T22:43:38.151Z,31.15
2023-02-16T22:46:08.253Z,30.92
2023-02-16T22:48:36.591Z,30.83
2023-02-16T22:51:06.447Z,31.52
2023-02-16T22:53:34.774Z,31.75
2023-02-16T22:56:05.335Z,33.35
2023-02-16T22:58:34.914Z,30.55
2023-02-16T23:01:02.582Z,30.38
2023-02-16T23:03:30.862Z,31.77
2023-02-16T23:05:58.382Z,29.77
2023-02-16T23:08:25.924Z,30.65
2023-02-16T23:11:02.189Z,30.60
2023-02-16T23:13:30.913Z,32.30
2023-02-16T23:16:05.105Z,31.23
2023-02-16T23:18:33.072Z,31.60
2023-02-16T23:21:06.588Z,31.25
2023-02-16T23:23:34.475Z,29.77
2023-02-16T23:26:02.312Z,30.20
2023-02-16T23:28:29.797Z,29.85
2023-02-16T23:31:00.680Z,32.10
2023-02-16T23:33:28.349Z,30.15
2023-02-16T23:35:55.886Z,29.55
2023-02-16T23:38:23.564Z,32.10
2023-02-16T23:40:56.558Z,29.10
2023-02-16T23:43:24.165Z,29.92
2023-02-16T23:45:52.039Z,29.88
2023-02-16T23:48:20.971Z,30.48
2023-02-16T23:50:48.780Z,28.85
2023-02-16T23:53:16.547Z,30.00
2023-02-16T23:55:44.436Z,29.10
2023-02-16T23:58:11.994Z,28.38
